sensor_id;sensor_type;location;lat;lon;timestamp;pressure;altitude;pressure_sealevel;temperature;humidity
29825;BME280;16713;52.916;12.834;2023-12-29T00:00:09;100186.28;;;7.87;63.08
29825;BME280;16713;52.916;12.834;2023-12-29T00:02:35;100176.75;;;7.81;62.99
29825;BME280;16713;52.916;12.834;2023-12-29T00:05:02;100173.00;;;7.89;62.93
29825;BME280;16713;52.916;12.834;2023-12-29T00:07:29;100171.44;;;7.88;64.14
29825;BME280;16713;52.916;12.834;2023-12-29T00:09:55;100167.59;;;7.92;63.17
29825;BME280;16713;52.916;12.834;2023-12-29T00:12:22;100161.31;;;7.92;63.85
29825;BME280;16713;52.916;12.834;2023-12-29T00:14:48;100165.00;;;7.99;64.24
29825;BME280;16713;52.916;12.834;2023-12-29T00:17:15;100157.94;;;7.98;62.83
29825;BME280;16713;52.916;12.834;2023-12-29T00:19:42;100151.09;;;7.89;63.05
29825;BME280;16713;52.916;12.834;2023-12-29T00:22:08;100161.69;;;7.90;63.02
29825;BME280;16713;52.916;12.834;2023-12-29T00:24:35;100145.25;;;7.90;63.01
29825;BME280;16713;52.916;12.834;2023-12-29T00:27:02;100143.81;;;7.96;63.29
29825;BME280;16713;52.916;12.834;2023-12-29T00:29:28;100148.13;;;7.97;63.83
29825;BME280;16713;52.916;12.834;2023-12-29T00:31:59;100135.97;;;7.95;63.75
29825;BME280;16713;52.916;12.834;2023-12-29T00:34:30;100126.22;;;7.97;63.44
29825;BME280;16713;52.916;12.834;2023-12-29T00:36:56;100133.78;;;8.04;63.15
29825;BME280;16713;52.916;12.834;2023-12-29T00:39:23;100134.63;;;8.08;62.99
29825;BME280;16713;52.916;12.834;2023-12-29T00:41:55;100124.31;;;8.01;63.88
29825;BME280;16713;52.916;12.834;2023-12-29T00:44:23;100122.09;;;8.07;63.65
29825;BME280;16713;52.916;12.834;2023-12-29T00:46:50;100118.19;;;8.08;63.08
29825;BME280;16713;52.916;12.834;2023-12-29T00:49:16;100122.16;;;8.10;62.85
29825;BME280;16713;52.916;12.834;2023-12-29T00:51:43;100124.81;;;8.07;62.71
29825;BME280;16713;52.916;12.834;2023-12-29T00:54:10;100113.38;;;8.01;63.06
29825;BME280;16713;52.916;12.834;2023-12-29T00:56:36;100117.28;;;8.00;62.77
29825;BME280;16713;52.916;12.834;2023-12-29T00:59:03;100120.31;;;7.95;62.67
29825;BME280;16713;52.916;12.834;2023-12-29T01:01:33;100114.91;;;7.99;62.44
29825;BME280;16713;52.916;12.834;2023-12-29T01:04:01;100128.31;;;8.04;62.57
29825;BME280;16713;52.916;12.834;2023-12-29T01:06:29;100118.91;;;8.05;63.26
29825;BME280;16713;52.916;12.834;2023-12-29T01:08:55;100121.00;;;8.11;63.11
29825;BME280;16713;52.916;12.834;2023-12-29T01:11:23;100117.47;;;8.11;62.95
29825;BME280;16713;52.916;12.834;2023-12-29T01:13:49;100118.19;;;8.08;62.53
29825;BME280;16713;52.916;12.834;2023-12-29T01:16:15;100114.25;;;8.05;62.47
29825;BME280;16713;52.916;12.834;2023-12-29T01:18:42;100115.44;;;8.08;62.16
29825;BME280;16713;52.916;12.834;2023-12-29T01:21:09;100120.22;;;8.11;61.86
29825;BME280;16713;52.916;12.834;2023-12-29T01:23:35;100114.97;;;8.02;62.95
29825;BME280;16713;52.916;12.834;2023-12-29T01:26:02;100111.31;;;7.95;62.09
29825;BME280;16713;52.916;12.834;2023-12-29T01:28:28;100110.59;;;7.98;62.05
29825;BME280;16713;52.916;12.834;2023-12-29T01:30:55;100105.13;;;7.98;62.66
29825;BME280;16713;52.916;12.834;2023-12-29T01:33:21;100095.19;;;7.90;62.12
29825;BME280;16713;52.916;12.834;2023-12-29T01:35:48;100094.94;;;7.98;62.98
29825;BME280;16713;52.916;12.834;2023-12-29T01:38:15;100106.91;;;7.90;62.32
29825;BME280;16713;52.916;12.834;2023-12-29T01:40:45;100095.59;;;7.92;62.37
29825;BME280;16713;52.916;12.834;2023-12-29T01:43:12;100085.00;;;7.90;62.81
29825;BME280;16713;52.916;12.834;2023-12-29T01:45:39;100091.47;;;8.01;62.16
29825;BME280;16713;52.916;12.834;2023-12-29T01:48:22;100087.94;;;8.01;62.34
29825;BME280;16713;52.916;12.834;2023-12-29T01:50:50;100083.75;;;8.07;62.91
29825;BME280;16713;52.916;12.834;2023-12-29T01:53:17;100077.06;;;8.04;63.11
29825;BME280;16713;52.916;12.834;2023-12-29T01:55:47;100082.19;;;8.09;62.31
29825;BME280;16713;52.916;12.834;2023-12-29T01:58:14;100072.78;;;8.07;62.37
29825;BME280;16713;52.916;12.834;2023-12-29T02:00:41;100068.03;;;8.04;61.96
29825;BME280;16713;52.916;12.834;2023-12-29T02:03:07;100074.72;;;8.06;63.15
29825;BME280;16713;52.916;12.834;2023-12-29T02:05:34;100062.50;;;8.00;63.31
29825;BME280;16713;52.916;12.834;2023-12-29T02:08:02;100070.47;;;8.09;62.33
29825;BME280;16713;52.916;12.834;2023-12-29T02:10:31;100079.13;;;8.11;62.77
29825;BME280;16713;52.916;12.834;2023-12-29T02:12:58;100067.38;;;8.10;62.35
29825;BME280;16713;52.916;12.834;2023-12-29T02:15:26;100062.25;;;8.09;62.72
29825;BME280;16713;52.916;12.834;2023-12-29T02:18:00;100053.59;;;8.07;62.48
29825;BME280;16713;52.916;12.834;2023-12-29T02:20:29;100056.03;;;8.12;63.29
29825;BME280;16713;52.916;12.834;2023-12-29T02:22:55;100052.44;;;8.08;63.14
29825;BME280;16713;52.916;12.834;2023-12-29T02:25:22;100044.13;;;8.01;63.26
29825;BME280;16713;52.916;12.834;2023-12-29T02:33:13;100045.38;;;8.07;62.72
29825;BME280;16713;52.916;12.834;2023-12-29T02:35:43;100044.97;;;8.05;62.95
29825;BME280;16713;52.916;12.834;2023-12-29T02:38:11;100039.91;;;8.07;62.28
29825;BME280;16713;52.916;12.834;2023-12-29T02:40:38;100034.50;;;8.10;62.56
29825;BME280;16713;52.916;12.834;2023-12-29T02:43:04;100029.75;;;8.07;62.90
29825;BME280;16713;52.916;12.834;2023-12-29T02:45:31;100029.38;;;8.09;62.93
29825;BME280;16713;52.916;12.834;2023-12-29T02:47:57;100018.50;;;8.12;63.12
29825;BME280;16713;52.916;12.834;2023-12-29T02:50:24;100023.97;;;8.12;62.92
29825;BME280;16713;52.916;12.834;2023-12-29T02:52:51;100021.16;;;8.09;62.53
29825;BME280;16713;52.916;12.834;2023-12-29T02:55:18;100025.97;;;8.15;63.09
29825;BME280;16713;52.916;12.834;2023-12-29T02:57:44;100017.81;;;8.19;62.02
29825;BME280;16713;52.916;12.834;2023-12-29T03:00:11;100008.59;;;8.08;62.73
29825;BME280;16713;52.916;12.834;2023-12-29T03:02:38;100004.16;;;8.00;63.28
29825;BME280;16713;52.916;12.834;2023-12-29T03:05:05;100000.44;;;8.11;62.78
29825;BME280;16713;52.916;12.834;2023-12-29T03:07:32;99997.28;;;8.09;62.72
29825;BME280;16713;52.916;12.834;2023-12-29T03:09:58;99994.19;;;8.11;63.15
29825;BME280;16713;52.916;12.834;2023-12-29T03:12:25;99981.59;;;8.06;62.73
29825;BME280;16713;52.916;12.834;2023-12-29T03:14:51;99990.53;;;8.03;62.09
29825;BME280;16713;52.916;12.834;2023-12-29T03:17:18;99987.50;;;8.08;62.43
29825;BME280;16713;52.916;12.834;2023-12-29T03:19:44;99981.59;;;8.06;63.28
29825;BME280;16713;52.916;12.834;2023-12-29T03:22:11;99992.59;;;8.10;62.40
29825;BME280;16713;52.916;12.834;2023-12-29T03:24:40;99991.03;;;8.09;61.99
29825;BME280;16713;52.916;12.834;2023-12-29T03:27:07;99991.50;;;8.14;62.43
29825;BME280;16713;52.916;12.834;2023-12-29T03:29:33;99985.13;;;8.07;62.75
29825;BME280;16713;52.916;12.834;2023-12-29T03:32:00;99985.06;;;8.03;61.77
29825;BME280;16713;52.916;12.834;2023-12-29T03:34:26;99986.69;;;8.08;62.61
29825;BME280;16713;52.916;12.834;2023-12-29T03:36:53;99977.34;;;8.09;62.65
29825;BME280;16713;52.916;12.834;2023-12-29T03:39:19;99977.34;;;8.09;62.80
29825;BME280;16713;52.916;12.834;2023-12-29T03:41:46;99970.75;;;8.13;62.74
29825;BME280;16713;52.916;12.834;2023-12-29T03:44:12;99960.59;;;8.14;61.55
29825;BME280;16713;52.916;12.834;2023-12-29T03:46:39;99951.19;;;8.15;62.16
29825;BME280;16713;52.916;12.834;2023-12-29T03:49:06;99952.06;;;8.19;61.82
29825;BME280;16713;52.916;12.834;2023-12-29T03:51:32;99949.31;;;8.19;62.01
29825;BME280;16713;52.916;12.834;2023-12-29T03:53:59;99940.75;;;8.24;61.87
29825;BME280;16713;52.916;12.834;2023-12-29T03:56:25;99933.31;;;8.24;61.33
29825;BME280;16713;52.916;12.834;2023-12-29T03:58:52;99941.59;;;8.28;61.99
29825;BME280;16713;52.916;12.834;2023-12-29T04:01:18;99934.88;;;8.22;61.99
29825;BME280;16713;52.916;12.834;2023-12-29T04:03:46;99926.53;;;8.15;61.05
29825;BME280;16713;52.916;12.834;2023-12-29T04:06:13;99925.75;;;8.14;61.16
29825;BME280;16713;52.916;12.834;2023-12-29T04:08:39;99934.31;;;8.13;62.45
29825;BME280;16713;52.916;12.834;2023-12-29T04:11:06;99924.16;;;8.13;62.37
29825;BME280;16713;52.916;12.834;2023-12-29T04:13:32;99924.44;;;8.05;62.11
29825;BME280;16713;52.916;12.834;2023-12-29T04:15:59;99930.28;;;8.03;62.24
29825;BME280;16713;52.916;12.834;2023-12-29T04:18:25;99918.44;;;7.96;61.86
29825;BME280;16713;52.916;12.834;2023-12-29T04:20:52;99911.72;;;7.93;61.84
29825;BME280;16713;52.916;12.834;2023-12-29T04:23:18;99916.38;;;7.89;62.49
29825;BME280;16713;52.916;12.834;2023-12-29T04:25:45;99912.53;;;7.94;62.16
29825;BME280;16713;52.916;12.834;2023-12-29T04:28:12;99924.22;;;7.91;61.64
29825;BME280;16713;52.916;12.834;2023-12-29T04:30:38;99917.91;;;7.87;62.38
29825;BME280;16713;52.916;12.834;2023-12-29T04:33:05;99923.06;;;7.92;63.03
29825;BME280;16713;52.916;12.834;2023-12-29T04:35:32;99925.41;;;7.93;62.26
29825;BME280;16713;52.916;12.834;2023-12-29T04:37:58;99916.88;;;7.95;61.90
29825;BME280;16713;52.916;12.834;2023-12-29T04:40:25;99909.91;;;8.01;62.16
29825;BME280;16713;52.916;12.834;2023-12-29T04:42:52;99908.75;;;8.02;63.05
29825;BME280;16713;52.916;12.834;2023-12-29T04:45:18;99903.19;;;7.98;62.67
29825;BME280;16713;52.916;12.834;2023-12-29T04:47:45;99891.47;;;7.98;62.68
29825;BME280;16713;52.916;12.834;2023-12-29T04:50:11;99894.25;;;8.01;62.83
29825;BME280;16713;52.916;12.834;2023-12-29T04:52:38;99900.53;;;8.02;62.53
29825;BME280;16713;52.916;12.834;2023-12-29T04:55:04;99898.25;;;8.07;61.77
29825;BME280;16713;52.916;12.834;2023-12-29T04:57:31;99900.16;;;8.03;62.52
29825;BME280;16713;52.916;12.834;2023-12-29T04:59:58;99888.00;;;8.01;62.93
29825;BME280;16713;52.916;12.834;2023-12-29T05:02:24;99882.50;;;8.01;62.14
29825;BME280;16713;52.916;12.834;2023-12-29T05:04:51;99884.88;;;8.02;62.76
29825;BME280;16713;52.916;12.834;2023-12-29T05:07:17;99885.63;;;7.99;61.99
29825;BME280;16713;52.916;12.834;2023-12-29T05:09:44;99882.78;;;7.92;62.52
29825;BME280;16713;52.916;12.834;2023-12-29T05:12:10;99876.66;;;8.02;63.17
29825;BME280;16713;52.916;12.834;2023-12-29T05:14:37;99887.31;;;8.07;63.25
29825;BME280;16713;52.916;12.834;2023-12-29T05:17:03;99881.09;;;8.10;63.20
29825;BME280;16713;52.916;12.834;2023-12-29T05:19:30;99873.28;;;8.12;62.58
29825;BME280;16713;52.916;12.834;2023-12-29T05:21:56;99870.50;;;8.09;62.91
29825;BME280;16713;52.916;12.834;2023-12-29T05:24:23;99877.16;;;8.11;62.52
29825;BME280;16713;52.916;12.834;2023-12-29T05:26:49;99874.44;;;8.11;62.42
29825;BME280;16713;52.916;12.834;2023-12-29T05:29:16;99876.44;;;8.14;63.14
29825;BME280;16713;52.916;12.834;2023-12-29T05:31:42;99880.81;;;8.19;63.57
29825;BME280;16713;52.916;12.834;2023-12-29T05:34:08;99879.28;;;8.21;63.04
29825;BME280;16713;52.916;12.834;2023-12-29T05:36:35;99877.28;;;8.18;62.30
29825;BME280;16713;52.916;12.834;2023-12-29T05:39:03;99873.38;;;8.19;62.87
29825;BME280;16713;52.916;12.834;2023-12-29T05:41:30;99856.56;;;8.21;62.40
29825;BME280;16713;52.916;12.834;2023-12-29T05:43:56;99859.25;;;8.17;62.96
29825;BME280;16713;52.916;12.834;2023-12-29T05:46:24;99862.69;;;8.11;63.26
29825;BME280;16713;52.916;12.834;2023-12-29T05:48:50;99864.72;;;8.17;63.27
29825;BME280;16713;52.916;12.834;2023-12-29T05:51:19;99863.19;;;8.20;63.36
29825;BME280;16713;52.916;12.834;2023-12-29T05:53:46;99859.66;;;8.19;62.58
29825;BME280;16713;52.916;12.834;2023-12-29T05:56:13;99872.66;;;8.26;62.82
29825;BME280;16713;52.916;12.834;2023-12-29T05:58:41;99869.13;;;8.25;62.58
29825;BME280;16713;52.916;12.834;2023-12-29T06:01:10;99867.56;;;8.24;63.30
29825;BME280;16713;52.916;12.834;2023-12-29T06:03:37;99873.00;;;8.21;63.17
29825;BME280;16713;52.916;12.834;2023-12-29T06:06:04;99866.38;;;8.22;63.58
29825;BME280;16713;52.916;12.834;2023-12-29T06:08:30;99865.56;;;8.21;62.69
29825;BME280;16713;52.916;12.834;2023-12-29T06:10:57;99881.22;;;8.21;63.98
29825;BME280;16713;52.916;12.834;2023-12-29T06:13:23;99867.84;;;8.16;63.59
29825;BME280;16713;52.916;12.834;2023-12-29T06:15:50;99870.19;;;8.17;64.39
29825;BME280;16713;52.916;12.834;2023-12-29T06:18:16;99867.06;;;8.15;64.55
29825;BME280;16713;52.916;12.834;2023-12-29T06:20:43;99865.16;;;8.19;64.61
29825;BME280;16713;52.916;12.834;2023-12-29T06:23:09;99862.88;;;8.25;63.92
29825;BME280;16713;52.916;12.834;2023-12-29T06:25:37;99856.19;;;8.22;63.51
29825;BME280;16713;52.916;12.834;2023-12-29T06:28:05;99860.88;;;8.22;63.46
29825;BME280;16713;52.916;12.834;2023-12-29T06:30:33;99857.72;;;8.20;64.16
29825;BME280;16713;52.916;12.834;2023-12-29T06:33:00;99860.88;;;8.22;63.99
29825;BME280;16713;52.916;12.834;2023-12-29T06:35:27;99852.19;;;8.16;63.93
29825;BME280;16713;52.916;12.834;2023-12-29T06:37:53;99850.69;;;8.19;63.56
29825;BME280;16713;52.916;12.834;2023-12-29T06:40:19;99858.16;;;8.22;63.87
29825;BME280;16713;52.916;12.834;2023-12-29T06:42:46;99866.75;;;8.24;64.18
29825;BME280;16713;52.916;12.834;2023-12-29T06:45:14;99865.94;;;8.20;63.24
29825;BME280;16713;52.916;12.834;2023-12-29T06:47:40;99863.47;;;8.11;63.26
29825;BME280;16713;52.916;12.834;2023-12-29T06:50:07;99866.16;;;8.08;63.90
29825;BME280;16713;52.916;12.834;2023-12-29T06:52:39;99876.66;;;8.02;63.54
29825;BME280;16713;52.916;12.834;2023-12-29T06:55:06;99854.22;;;7.93;64.46
29825;BME280;16713;52.916;12.834;2023-12-29T06:57:34;99862.91;;;7.99;63.66
29825;BME280;16713;52.916;12.834;2023-12-29T07:00:01;99864.84;;;7.98;63.66
29825;BME280;16713;52.916;12.834;2023-12-29T07:02:27;99868.34;;;7.95;63.77
29825;BME280;16713;52.916;12.834;2023-12-29T07:04:54;99854.13;;;7.86;65.71
29825;BME280;16713;52.916;12.834;2023-12-29T07:07:20;99862.72;;;7.85;66.54
29825;BME280;16713;52.916;12.834;2023-12-29T07:09:47;99868.66;;;7.90;65.27
29825;BME280;16713;52.916;12.834;2023-12-29T07:12:13;99883.94;;;7.91;65.73
29825;BME280;16713;52.916;12.834;2023-12-29T07:14:41;99872.56;;;7.89;65.33
29825;BME280;16713;52.916;12.834;2023-12-29T07:17:07;99878.47;;;7.91;65.58
29825;BME280;16713;52.916;12.834;2023-12-29T07:19:34;99875.41;;;7.96;66.05
29825;BME280;16713;52.916;12.834;2023-12-29T07:22:04;99865.28;;;8.00;65.02
29825;BME280;16713;52.916;12.834;2023-12-29T07:24:32;99874.44;;;8.11;66.06
29825;BME280;16713;52.916;12.834;2023-12-29T07:26:59;99870.88;;;8.07;65.67
29825;BME280;16713;52.916;12.834;2023-12-29T07:29:26;99872.53;;;8.15;65.14
29825;BME280;16713;52.916;12.834;2023-12-29T07:31:52;99879.59;;;8.16;65.20
29825;BME280;16713;52.916;12.834;2023-12-29T07:34:20;99870.94;;;8.14;65.60
29825;BME280;16713;52.916;12.834;2023-12-29T07:36:46;99888.25;;;8.18;65.30
29825;BME280;16713;52.916;12.834;2023-12-29T07:39:13;99898.81;;;8.20;65.64
29825;BME280;16713;52.916;12.834;2023-12-29T07:41:41;99891.09;;;8.29;65.76
29825;BME280;16713;52.916;12.834;2023-12-29T07:44:10;99889.97;;;8.33;65.47
29825;BME280;16713;52.916;12.834;2023-12-29T07:46:38;99888.31;;;8.25;65.44
29825;BME280;16713;52.916;12.834;2023-12-29T07:49:05;99892.28;;;8.28;65.43
29825;BME280;16713;52.916;12.834;2023-12-29T07:51:32;99894.31;;;8.34;65.58
29825;BME280;16713;52.916;12.834;2023-12-29T07:53:58;99905.34;;;8.41;65.31
29825;BME280;16713;52.916;12.834;2023-12-29T07:56:25;99897.94;;;8.42;65.78
29825;BME280;16713;52.916;12.834;2023-12-29T07:58:51;99898.69;;;8.39;66.30
29825;BME280;16713;52.916;12.834;2023-12-29T08:01:18;99906.47;;;8.37;66.18
29825;BME280;16713;52.916;12.834;2023-12-29T08:03:44;99903.75;;;8.37;66.71
29825;BME280;16713;52.916;12.834;2023-12-29T08:06:11;99907.22;;;8.34;66.90
29825;BME280;16713;52.916;12.834;2023-12-29T08:08:39;99911.56;;;8.35;65.74
29825;BME280;16713;52.916;12.834;2023-12-29T08:11:12;99908.03;;;8.34;66.94
29825;BME280;16713;52.916;12.834;2023-12-29T08:13:39;99919.03;;;8.38;67.19
29825;BME280;16713;52.916;12.834;2023-12-29T08:16:06;99909.66;;;8.39;67.73
29825;BME280;16713;52.916;12.834;2023-12-29T08:18:34;99902.63;;;8.41;68.63
29825;BME280;16713;52.916;12.834;2023-12-29T08:21:01;99908.91;;;8.42;68.32
29825;BME280;16713;52.916;12.834;2023-12-29T08:23:28;99914.31;;;8.38;69.73
29825;BME280;16713;52.916;12.834;2023-12-29T08:25:56;99917.75;;;8.32;69.21
29825;BME280;16713;52.916;12.834;2023-12-29T08:28:24;99905.50;;;8.22;69.76
29825;BME280;16713;52.916;12.834;2023-12-29T08:30:50;99901.47;;;8.13;70.45
29825;BME280;16713;52.916;12.834;2023-12-29T08:33:17;99885.75;;;8.10;69.92
29825;BME280;16713;52.916;12.834;2023-12-29T08:35:44;99893.22;;;8.13;69.73
29825;BME280;16713;52.916;12.834;2023-12-29T08:38:12;99903.75;;;8.07;70.46
29825;BME280;16713;52.916;12.834;2023-12-29T08:40:38;99907.38;;;8.15;69.61
29825;BME280;16713;52.916;12.834;2023-12-29T08:43:05;99907.31;;;8.11;69.51
29825;BME280;16713;52.916;12.834;2023-12-29T08:45:31;99903.81;;;8.14;68.93
29825;BME280;16713;52.916;12.834;2023-12-29T08:47:58;99903.81;;;8.14;67.83
29825;BME280;16713;52.916;12.834;2023-12-29T08:50:25;99917.25;;;8.23;69.05
29825;BME280;16713;52.916;12.834;2023-12-29T08:52:51;99905.50;;;8.22;68.45
29825;BME280;16713;52.916;12.834;2023-12-29T08:55:18;99924.34;;;8.27;67.82
29825;BME280;16713;52.916;12.834;2023-12-29T08:57:44;99909.09;;;8.26;68.91
29825;BME280;16713;52.916;12.834;2023-12-29T09:00:11;99915.72;;;8.25;68.16
29825;BME280;16713;52.916;12.834;2023-12-29T09:02:37;99918.44;;;8.25;67.92
29825;BME280;16713;52.916;12.834;2023-12-29T09:05:04;99911.78;;;8.23;67.86
29825;BME280;16713;52.916;12.834;2023-12-29T09:07:31;99915.81;;;8.32;67.63
29825;BME280;16713;52.916;12.834;2023-12-29T09:09:58;99908.81;;;8.35;68.04
29825;BME280;16713;52.916;12.834;2023-12-29T09:12:25;99914.00;;;8.43;67.32
29825;BME280;16713;52.916;12.834;2023-12-29T09:14:52;99911.63;;;8.42;67.43
29825;BME280;16713;52.916;12.834;2023-12-29T09:17:18;99904.97;;;8.39;67.39
29825;BME280;16713;52.916;12.834;2023-12-29T09:19:45;99920.34;;;8.47;67.58
29825;BME280;16713;52.916;12.834;2023-12-29T09:22:18;99925.78;;;8.44;66.91
29825;BME280;16713;52.916;12.834;2023-12-29T09:24:45;99928.63;;;8.51;67.50
29825;BME280;16713;52.916;12.834;2023-12-29T09:27:12;99930.13;;;8.48;67.33
29825;BME280;16713;52.916;12.834;2023-12-29T09:29:41;99939.41;;;8.40;67.24
29825;BME280;16713;52.916;12.834;2023-12-29T09:32:07;99935.56;;;8.45;67.08
29825;BME280;16713;52.916;12.834;2023-12-29T09:34:34;99939.09;;;8.45;66.71
29825;BME280;16713;52.916;12.834;2023-12-29T09:37:01;99938.63;;;8.40;67.08
29825;BME280;16713;52.916;12.834;2023-12-29T09:39:27;99954.69;;;8.41;66.86
29825;BME280;16713;52.916;12.834;2023-12-29T09:41:58;99965.31;;;8.43;66.59
29825;BME280;16713;52.916;12.834;2023-12-29T09:44:25;99970.75;;;8.39;67.26
29825;BME280;16713;52.916;12.834;2023-12-29T09:46:53;99982.09;;;8.41;67.41
29825;BME280;16713;52.916;12.834;2023-12-29T09:49:21;99962.41;;;8.32;68.27
29825;BME280;16713;52.916;12.834;2023-12-29T09:51:48;99975.78;;;8.37;67.88
29825;BME280;16713;52.916;12.834;2023-12-29T09:54:15;99971.19;;;8.45;67.86
29825;BME280;16713;52.916;12.834;2023-12-29T09:56:41;99964.41;;;8.35;68.50
29825;BME280;16713;52.916;12.834;2023-12-29T09:59:11;99955.75;;;8.33;68.46
29825;BME280;16713;52.916;12.834;2023-12-29T10:01:39;99973.75;;;8.31;68.86
29825;BME280;16713;52.916;12.834;2023-12-29T10:04:07;99950.94;;;8.23;69.83
29825;BME280;16713;52.916;12.834;2023-12-29T10:06:36;99948.56;;;8.22;69.81
29825;BME280;16713;52.916;12.834;2023-12-29T10:09:03;99951.63;;;8.17;69.05
29825;BME280;16713;52.916;12.834;2023-12-29T10:11:34;99950.88;;;8.20;69.84
29825;BME280;16713;52.916;12.834;2023-12-29T10:14:09;99941.97;;;8.26;69.15
29825;BME280;16713;52.916;12.834;2023-12-29T10:16:45;99948.19;;;8.23;70.79
29825;BME280;16713;52.916;12.834;2023-12-29T10:19:40;99937.97;;;8.20;70.11
29825;BME280;16713;52.916;12.834;2023-12-29T10:22:17;99936.75;;;8.18;70.08
29825;BME280;16713;52.916;12.834;2023-12-29T10:24:45;99931.22;;;8.14;71.44
29825;BME280;16713;52.916;12.834;2023-12-29T10:27:13;99924.06;;;8.06;70.64
29825;BME280;16713;52.916;12.834;2023-12-29T10:29:39;99926.84;;;8.10;71.06
29825;BME280;16713;52.916;12.834;2023-12-29T10:32:06;99939.72;;;8.06;71.79
29825;BME280;16713;52.916;12.834;2023-12-29T10:34:33;99926.78;;;8.06;71.03
29825;BME280;16713;52.916;12.834;2023-12-29T10:37:00;99930.66;;;8.02;72.05
29825;BME280;16713;52.916;12.834;2023-12-29T10:39:33;99905.16;;;7.98;72.17
29825;BME280;16713;52.916;12.834;2023-12-29T10:42:04;99923.97;;;7.99;70.90
29825;BME280;16713;52.916;12.834;2023-12-29T10:44:33;99902.50;;;8.05;71.59
29825;BME280;16713;52.916;12.834;2023-12-29T10:47:10;99919.81;;;8.09;70.96
29825;BME280;16713;52.916;12.834;2023-12-29T10:49:37;99903.75;;;8.07;70.83
29825;BME280;16713;52.916;12.834;2023-12-29T10:52:15;99910.84;;;8.12;70.67
29825;BME280;16713;52.916;12.834;2023-12-29T10:54:42;99900.72;;;8.16;71.67
29825;BME280;16713;52.916;12.834;2023-12-29T10:57:12;99889.44;;;8.21;71.29
29825;BME280;16713;52.916;12.834;2023-12-29T10:59:39;99890.22;;;8.21;71.89
29825;BME280;16713;52.916;12.834;2023-12-29T11:02:06;99896.97;;;8.27;71.28
29825;BME280;16713;52.916;12.834;2023-12-29T11:04:34;99900.88;;;8.26;71.70
29825;BME280;16713;52.916;12.834;2023-12-29T11:07:01;99896.13;;;8.23;70.63
29825;BME280;16713;52.916;12.834;2023-12-29T11:09:32;99891.09;;;8.29;71.40
29825;BME280;16713;52.916;12.834;2023-12-29T11:12:03;99893.09;;;8.32;71.35
29825;BME280;16713;52.916;12.834;2023-12-29T11:14:31;99891.97;;;8.33;71.39
29825;BME280;16713;52.916;12.834;2023-12-29T11:16:58;99888.00;;;8.30;71.18
29825;BME280;16713;52.916;12.834;2023-12-29T11:19:27;99885.25;;;8.30;71.67
29825;BME280;16713;52.916;12.834;2023-12-29T11:21:55;99883.41;;;8.38;71.38
29825;BME280;16713;52.916;12.834;2023-12-29T11:24:22;99887.34;;;8.40;70.86
29825;BME280;16713;52.916;12.834;2023-12-29T11:27:04;99878.69;;;8.38;70.99
29825;BME280;16713;52.916;12.834;2023-12-29T11:29:34;99876.06;;;8.45;71.32
29825;BME280;16713;52.916;12.834;2023-12-29T11:32:03;99883.81;;;8.40;71.64
29825;BME280;16713;52.916;12.834;2023-12-29T11:34:41;99868.97;;;8.41;71.45
29825;BME280;16713;52.916;12.834;2023-12-29T11:37:29;99858.00;;;8.41;70.53
29825;BME280;16713;52.916;12.834;2023-12-29T11:40:21;99843.06;;;8.38;70.33
29825;BME280;16713;52.916;12.834;2023-12-29T11:42:53;99837.19;;;8.36;70.88
29825;BME280;16713;52.916;12.834;2023-12-29T11:45:29;99850.53;;;8.38;71.13
29825;BME280;16713;52.916;12.834;2023-12-29T11:47:58;99874.81;;;8.39;70.81
29825;BME280;16713;52.916;12.834;2023-12-29T11:50:36;99878.38;;;8.43;71.14
29825;BME280;16713;52.916;12.834;2023-12-29T11:53:04;99852.19;;;8.46;70.82
29825;BME280;16713;52.916;12.834;2023-12-29T11:58:00;99855.69;;;8.46;71.58
29825;BME280;16713;52.916;12.834;2023-12-29T12:00:46;99852.56;;;8.44;71.00
29825;BME280;16713;52.916;12.834;2023-12-29T12:03:27;99839.25;;;8.46;71.09
29825;BME280;16713;52.916;12.834;2023-12-29T12:05:55;99825.53;;;8.46;71.02
29825;BME280;16713;52.916;12.834;2023-12-29T12:08:31;99833.81;;;8.50;70.95
29825;BME280;16713;52.916;12.834;2023-12-29T12:13:56;99821.31;;;8.52;70.53
29825;BME280;16713;52.916;12.834;2023-12-29T12:19:12;99839.34;;;8.53;69.81
29825;BME280;16713;52.916;12.834;2023-12-29T12:21:40;99829.03;;;8.43;69.59
29825;BME280;16713;52.916;12.834;2023-12-29T12:24:07;99840.50;;;8.52;67.91
29825;BME280;16713;52.916;12.834;2023-12-29T12:26:34;99847.94;;;8.52;68.78
29825;BME280;16713;52.916;12.834;2023-12-29T12:29:04;99836.56;;;8.50;68.11
29825;BME280;16713;52.916;12.834;2023-12-29T12:31:31;99840.09;;;8.50;68.09
29825;BME280;16713;52.916;12.834;2023-12-29T12:33:58;99825.97;;;8.48;67.32
29825;BME280;16713;52.916;12.834;2023-12-29T12:36:26;99831.63;;;8.59;66.77
29825;BME280;16713;52.916;12.834;2023-12-29T12:38:54;99828.88;;;8.62;67.18
29825;BME280;16713;52.916;12.834;2023-12-29T12:41:22;99829.06;;;8.80;65.74
29825;BME280;16713;52.916;12.834;2023-12-29T12:44:11;99835.78;;;8.83;65.16
29825;BME280;16713;52.916;12.834;2023-12-29T12:49:14;99828.81;;;8.92;64.52
29825;BME280;16713;52.916;12.834;2023-12-29T12:51:42;99844.59;;;9.02;64.59
29825;BME280;16713;52.916;12.834;2023-12-29T12:54:10;99844.56;;;8.99;64.10
29825;BME280;16713;52.916;12.834;2023-12-29T12:56:36;99845.69;;;8.94;64.00
29825;BME280;16713;52.916;12.834;2023-12-29T12:59:03;99853.13;;;8.94;64.58
29825;BME280;16713;52.916;12.834;2023-12-29T13:01:34;99846.56;;;9.05;64.09
29825;BME280;16713;52.916;12.834;2023-12-29T13:04:03;99857.94;;;9.04;64.60
29825;BME280;16713;52.916;12.834;2023-12-29T13:06:34;99848.53;;;9.05;64.88
29825;BME280;16713;52.916;12.834;2023-12-29T13:09:05;99850.09;;;9.06;64.95
29825;BME280;16713;52.916;12.834;2023-12-29T13:11:38;99848.56;;;9.08;64.98
29825;BME280;16713;52.916;12.834;2023-12-29T13:14:04;99843.72;;;8.95;65.07
29825;BME280;16713;52.916;12.834;2023-12-29T13:16:36;99847.34;;;9.06;64.83